首页
METAR-TAF:

METAR-TAF

机场 :

Pittsfield Municipal Airport

皮茨菲尔德, 马萨诸塞州, 美国

纬度: 42-25-38N, 经度: 073-17-21W, 海拔: 364米

当前天气观测

该预报发布于40分钟前的11:54 UTC
风速8节,风向,在西北东转东北之间变化
温度 -14°C
湿度 66%
气压 1017 hPa
能見度: 16.1公里
天空无云

METAR: KPSF 241154Z AUTO 36008KT 310V060 10SM CLR M14/M19 A3004 RMK AO2 SLP205 T11441194 11128 21144 51011

时间: 07:34 (12:34 UTC)

预报

该预报发布于1小时和10分钟前的11:24 UTC
预报有效从24日的 12点(UTC)到 25日的 12点(UTC)
风速12节,风向西转西北
能見度: 10公里
天空无云
从 24日的 1500点(UTC)
风速15节,风向西转西北,有时为25节阵风
能見度: 10公里
天空无云
从 24日的 2300点(UTC)
风速8节,风向西转西北
能見度: 10公里
散云层高于15000英尺

TAF: KPSF 241124Z 2412/2512 30012KT P6SM SKC FM241500 30015G25KT P6SM SKC FM242300 29008KT P6SM SCT150

超过4000个机场的气象观测和天气预报(METAR&TAF报告)。

可查询的气象台以黄色和红色小点在地图上表示。

将鼠标移到小点上方,可查看气象台名称。

然后点击查看天气观测和预报。

如需切换地图:点击带黑十字的绿色按钮放大地图;点击带横线的绿色按钮缩小地图;或者点击绿色箭头查看邻近地区的地图。


METAR-TAF: